Time;durP1;ratioP1;P1;durP2;ratioP2;P2;SDS_P1;SDS_P2;PMS_P1;PMS_P2;Temp;Humidity;BMP_temperature;BMP_pressure;BME280_temperature;BME280_humidity;BME280_pressure;Samples;Min_cycle;Max_cycle;Signal;HPM_P1;HPM_P2
2022/02/18 00:00:15;;;;;;;3.10;1.70;;;;;;;4.62;70.02;100182.50;5071937;28;20031;-22
2022/02/18 00:02:40;;;;;;;2.10;1.83;;;;;;;4.60;70.13;100185.09;5071017;28;20038;-22
2022/02/18 00:05:06;;;;;;;4.75;2.45;;;;;;;4.57;70.17;100192.06;5072128;28;20043;-22
2022/02/18 00:07:31;;;;;;;3.03;1.77;;;;;;;4.54;70.38;100192.03;5070627;28;20025;-22
2022/02/18 00:09:56;;;;;;;5.47;1.55;;;;;;;4.53;70.17;100177.22;5069801;28;20478;-22
2022/02/18 00:12:22;;;;;;;4.28;1.70;;;;;;;4.52;70.86;100185.91;5069309;28;20040;-21
2022/02/18 00:14:47;;;;;;;3.45;1.90;;;;;;;4.46;70.01;100190.22;5072961;28;20055;-22
2022/02/18 00:17:12;;;;;;;2.08;1.20;;;;;;;4.47;70.19;100189.34;5069154;28;20044;-22
2022/02/18 00:19:38;;;;;;;3.00;1.63;;;;;;;4.44;70.36;100183.25;5070633;28;20465;-22
2022/02/18 00:22:03;;;;;;;6.68;1.77;;;;;;;4.42;70.42;100174.50;5068853;28;20482;-22
2022/02/18 00:24:29;;;;;;;5.18;1.90;;;;;;;4.40;70.22;100182.34;5070772;28;20040;-22
2022/02/18 00:26:54;;;;;;;3.42;1.60;;;;;;;4.39;70.42;100191.03;5069737;28;20146;-21
2022/02/18 00:29:20;;;;;;;2.53;1.42;;;;;;;4.39;70.13;100180.59;5073133;28;20462;-22
2022/02/18 00:31:45;;;;;;;2.55;1.77;;;;;;;4.35;70.73;100187.53;5069645;28;20032;-22
2022/02/18 00:34:10;;;;;;;4.55;2.30;;;;;;;4.34;70.74;100184.91;5071951;28;20024;-22
2022/02/18 00:36:36;;;;;;;3.22;1.67;;;;;;;4.32;70.65;100173.56;5070774;28;20023;-22
2022/02/18 00:39:01;;;;;;;5.03;2.10;;;;;;;4.32;70.36;100178.78;5071794;28;20020;-22
2022/02/18 00:41:27;;;;;;;2.88;1.20;;;;;;;4.30;70.32;100189.22;5071638;28;20035;-22
2022/02/18 00:43:52;;;;;;;3.58;1.38;;;;;;;4.28;70.61;100188.34;5070350;28;20044;-22
2022/02/18 00:46:17;;;;;;;4.38;1.45;;;;;;;4.28;70.63;100197.91;5069517;28;20103;-22
2022/02/18 00:48:43;;;;;;;3.45;1.38;;;;;;;4.27;70.37;100194.41;5056253;28;20142;-22
2022/02/18 00:51:08;;;;;;;1.90;1.30;;;;;;;4.30;70.69;100197.03;5070998;28;20028;-22
2022/02/18 00:53:34;;;;;;;5.18;1.42;;;;;;;4.32;70.94;100202.28;5072250;28;20063;-22
2022/02/18 00:55:59;;;;;;;3.60;1.73;;;;;;;4.35;71.16;100212.75;5070920;28;20028;-22
2022/02/18 00:58:25;;;;;;;2.42;1.33;;;;;;;4.33;71.06;100198.81;5067796;28;20028;-22
2022/02/18 01:00:51;;;;;;;4.80;1.73;;;;;;;4.38;71.25;100214.53;5069674;28;20493;-22
2022/02/18 01:03:17;;;;;;;8.35;1.80;;;;;;;4.38;71.19;100204.97;5070834;28;20078;-22
2022/02/18 01:05:43;;;;;;;4.82;1.42;;;;;;;4.41;71.58;100206.72;5073277;28;20020;-22
2022/02/18 01:08:09;;;;;;;5.00;1.50;;;;;;;4.43;71.45;100211.09;5071221;28;20060;-22
2022/02/18 01:10:35;;;;;;;3.95;1.55;;;;;;;4.45;71.52;100226.78;5071856;28;20032;-22
2022/02/18 01:13:00;;;;;;;4.88;1.67;;;;;;;4.47;71.40;100220.69;5074115;28;20213;-22
2022/02/18 01:15:26;;;;;;;1.70;1.60;;;;;;;4.49;71.51;100226.81;5068106;28;20039;-22
2022/02/18 01:17:51;;;;;;;2.97;1.70;;;;;;;4.52;71.80;100227.69;5068173;28;20024;-22
2022/02/18 01:20:17;;;;;;;4.40;1.33;;;;;;;4.53;71.50;100229.47;5066801;28;20024;-22
2022/02/18 01:22:42;;;;;;;6.97;1.60;;;;;;;4.54;71.78;100231.22;5067958;28;20038;-22
2022/02/18 01:25:11;;;;;;;5.45;1.90;;;;;;;4.55;72.11;100236.44;5070912;28;20079;-22
2022/02/18 01:27:39;;;;;;;2.20;2.00;;;;;;;4.56;72.07;100245.13;5081977;28;20028;-22
2022/02/18 01:30:05;;;;;;;3.78;1.45;;;;;;;4.58;72.00;100243.44;5084902;28;20048;-21
2022/02/18 01:32:31;;;;;;;2.10;1.20;;;;;;;4.56;71.60;100229.47;5078800;28;20532;-22
2022/02/18 01:34:58;;;;;;;2.88;1.50;;;;;;;4.55;71.90;100219.88;5084340;28;20063;-22
2022/02/18 01:37:24;;;;;;;3.42;1.30;;;;;;;4.57;71.88;100220.78;5080193;28;20032;-22
2022/02/18 01:39:50;;;;;;;3.42;1.20;;;;;;;4.58;71.77;100225.16;5079761;28;20028;-22
2022/02/18 01:42:15;;;;;;;3.22;2.17;;;;;;;4.59;71.89;100224.28;5079194;28;20024;-22
2022/02/18 01:44:43;;;;;;;2.72;1.10;;;;;;;4.62;71.68;100224.31;5081505;28;20379;-21
2022/02/18 01:47:13;;;;;;;5.38;1.90;;;;;;;4.61;71.43;100212.97;5080510;28;20363;-22
2022/02/18 01:49:39;;;;;;;2.08;1.27;;;;;;;4.61;71.92;100207.75;5082672;28;20024;-21
2022/02/18 01:52:05;;;;;;;4.50;1.35;;;;;;;4.62;72.34;100209.53;5081642;28;20504;-21
2022/02/18 01:54:30;;;;;;;2.47;1.10;;;;;;;4.58;71.90;100209.47;5082248;28;20020;-22
2022/02/18 01:56:56;;;;;;;2.08;0.95;;;;;;;4.62;71.95;100208.63;5063969;28;20500;-21
2022/02/18 01:59:21;;;;;;;2.53;1.75;;;;;;;4.62;71.65;100199.06;5084299;28;20103;-22
2022/02/18 02:01:47;;;;;;;3.72;2.08;;;;;;;4.60;72.18;100195.56;5073060;28;20479;-21
2022/02/18 02:04:12;;;;;;;3.53;1.48;;;;;;;4.60;71.91;100189.44;5070336;28;20077;-22
2022/02/18 02:06:39;;;;;;;3.97;1.52;;;;;;;4.62;71.66;100209.53;5069069;28;20056;-21
2022/02/18 02:09:04;;;;;;;5.53;1.88;;;;;;;4.62;71.78;100204.28;5070314;28;20017;-21
2022/02/18 02:11:30;;;;;;;2.53;1.73;;;;;;;4.62;71.84;100203.41;5069103;28;20028;-22
2022/02/18 02:13:55;;;;;;;4.25;1.55;;;;;;;4.60;71.55;100207.72;5067065;28;20043;-21
2022/02/18 02:16:21;;;;;;;2.55;1.33;;;;;;;4.60;71.92;100206.00;5068665;28;20023;-22
2022/02/18 02:18:46;;;;;;;6.68;1.55;;;;;;;4.59;72.35;100206.00;5069013;28;20555;-21
2022/02/18 02:21:13;;;;;;;3.20;1.20;;;;;;;4.60;72.20;100205.13;5073491;28;20057;-22
2022/02/18 02:23:38;;;;;;;3.38;1.70;;;;;;;4.57;71.95;100200.75;5073912;28;20051;-21
2022/02/18 02:26:11;;;;;;;2.58;1.30;;;;;;;4.57;72.03;100200.75;5077185;28;20471;-22
2022/02/18 02:28:36;;;;;;;3.63;1.23;;;;;;;4.59;72.12;100200.75;5073789;28;20028;-21
2022/02/18 02:31:02;;;;;;;3.58;1.67;;;;;;;4.59;72.32;100206.00;5072189;28;20032;-21
2022/02/18 02:33:27;;;;;;;2.67;1.58;;;;;;;4.57;72.06;100199.91;5069934;28;20428;-21
2022/02/18 02:35:53;;;;;;;2.92;1.38;;;;;;;4.57;71.95;100199.91;5071507;28;20066;-22
2022/02/18 02:38:19;;;;;;;1.73;1.38;;;;;;;4.54;71.82;100200.75;5071431;28;20032;-21
2022/02/18 02:40:45;;;;;;;2.25;1.13;;;;;;;4.55;72.26;100196.38;5074259;28;20077;-21
2022/02/18 02:43:10;;;;;;;1.88;1.20;;;;;;;4.55;72.10;100196.38;5072540;28;20444;-21
2022/02/18 02:45:35;;;;;;;3.40;1.38;;;;;;;4.54;72.11;100200.75;5072280;28;20676;-21
2022/02/18 02:48:01;;;;;;;3.65;1.73;;;;;;;4.52;72.36;100193.75;5073285;28;20103;-21
2022/02/18 02:50:26;;;;;;;2.42;1.65;;;;;;;4.50;72.10;100193.72;5074861;28;20032;-21
2022/02/18 02:52:52;;;;;;;1.95;0.95;;;;;;;4.51;72.45;100171.09;5076312;28;20109;-21
2022/02/18 02:55:17;;;;;;;3.17;1.50;;;;;;;4.49;72.02;100179.81;5076853;28;20482;-21
2022/02/18 02:57:43;;;;;;;5.38;1.50;;;;;;;4.48;72.13;100182.41;5074005;28;20031;-21
2022/02/18 03:00:11;;;;;;;3.40;1.50;;;;;;;4.47;72.26;100197.19;5074746;28;20462;-21
2022/02/18 03:02:36;;;;;;;2.35;1.77;;;;;;;4.47;72.54;100189.34;5072352;28;20028;-22
2022/02/18 03:05:03;;;;;;;3.22;1.80;;;;;;;4.46;72.64;100199.78;5072905;28;20024;-21
2022/02/18 03:07:28;;;;;;;2.78;1.40;;;;;;;4.44;72.30;100199.78;5070633;28;20032;-22
2022/02/18 03:09:54;;;;;;;6.50;1.80;;;;;;;4.43;72.90;100203.25;5073168;28;20081;-22
2022/02/18 03:12:19;;;;;;;4.60;1.70;;;;;;;4.43;72.82;100199.78;5071545;28;20028;-21
2022/02/18 03:14:44;;;;;;;5.63;2.22;;;;;;;4.43;72.88;100202.41;5073067;28;20028;-22
2022/02/18 03:17:10;;;;;;;5.63;2.10;;;;;;;4.41;72.74;100204.09;5073919;28;20426;-22
2022/02/18 03:19:35;;;;;;;4.65;1.95;;;;;;;4.41;72.81;100198.88;5071413;28;20025;-22
2022/02/18 03:22:01;;;;;;;1.80;1.70;;;;;;;4.38;72.72;100189.28;5070938;28;20494;-22
2022/02/18 03:24:26;;;;;;;6.07;1.50;;;;;;;4.41;72.75;100198.88;5071236;28;20024;-22
2022/02/18 03:26:52;;;;;;;2.85;1.77;;;;;;;4.41;73.21;100197.16;5071834;28;20036;-22
2022/02/18 03:29:17;;;;;;;3.55;1.85;;;;;;;4.40;73.03;100197.13;5071160;28;20021;-21
2022/02/18 03:31:42;;;;;;;1.30;1.20;;;;;;;4.40;72.57;100187.56;5070513;28;20028;-21
2022/02/18 03:34:08;;;;;;;2.80;1.80;;;;;;;4.39;73.11;100196.25;5072163;28;20024;-22
2022/02/18 03:36:33;;;;;;;2.35;1.50;;;;;;;4.39;72.82;100196.25;5074918;28;20137;-21
2022/02/18 03:39:00;;;;;;;3.30;1.75;;;;;;;4.37;72.90;100192.78;5074409;28;20071;-22
2022/02/18 03:41:30;;;;;;;3.53;1.77;;;;;;;4.38;73.34;100194.53;5076409;28;20020;-22
2022/02/18 03:43:56;;;;;;;4.25;2.17;;;;;;;4.39;73.47;100204.09;5077558;28;20115;-22
2022/02/18 03:46:22;;;;;;;2.55;1.80;;;;;;;4.38;73.12;100202.34;5073024;28;20107;-22
2022/02/18 03:48:47;;;;;;;3.72;1.90;;;;;;;4.35;73.15;100200.59;5077232;28;20027;-22
2022/02/18 03:51:12;;;;;;;3.50;1.65;;;;;;;4.33;73.42;100193.56;5070753;28;20028;-22
2022/02/18 03:53:38;;;;;;;2.85;1.40;;;;;;;4.38;73.00;100196.25;5077196;28;20119;-21
2022/02/18 03:56:03;;;;;;;3.22;1.73;;;;;;;4.36;72.90;100196.22;5081040;28;20182;-21
2022/02/18 03:58:29;;;;;;;2.45;1.98;;;;;;;4.38;72.89;100201.47;5068922;28;20402;-22
2022/02/18 04:00:54;;;;;;;4.40;1.63;;;;;;;4.38;73.41;100204.06;5081796;28;20111;-21
2022/02/18 04:03:20;;;;;;;2.97;2.03;;;;;;;4.36;73.28;100207.56;5069978;28;20074;-22
2022/02/18 04:05:46;;;;;;;3.50;1.63;;;;;;;4.35;72.75;100205.81;5078701;28;20120;-21
2022/02/18 04:08:11;;;;;;;2.05;1.77;;;;;;;4.37;73.48;100218.88;5070651;28;20036;-22
2022/02/18 04:10:37;;;;;;;4.05;1.67;;;;;;;4.37;73.10;100213.66;5072411;28;20099;-22
2022/02/18 04:13:03;;;;;;;2.72;1.50;;;;;;;4.36;73.22;100206.66;5079585;28;20055;-21
2022/02/18 04:15:29;;;;;;;3.75;1.70;;;;;;;4.35;72.91;100205.81;5076075;28;20024;-21
2022/02/18 04:17:54;;;;;;;2.35;1.52;;;;;;;4.36;73.08;100206.66;5087401;28;20034;-21
2022/02/18 04:20:20;;;;;;;2.08;1.85;;;;;;;4.33;73.18;100209.25;5082786;28;20066;-21
2022/02/18 04:22:45;;;;;;;3.42;2.00;;;;;;;4.35;73.20;100205.81;5080969;28;20940;-21
2022/02/18 04:25:10;;;;;;;4.45;1.58;;;;;;;4.35;73.22;100204.94;5082125;28;20078;-21
2022/02/18 04:27:36;;;;;;;3.55;2.33;;;;;;;4.36;73.65;100207.56;5060251;28;20035;-22
2022/02/18 04:30:02;;;;;;;4.90;1.88;;;;;;;4.35;73.34;100210.16;5072202;28;20025;-21
2022/02/18 04:32:28;;;;;;;2.33;1.65;;;;;;;4.36;73.40;100206.66;5069738;28;20036;-21
2022/02/18 04:34:53;;;;;;;1.92;1.35;;;;;;;4.36;73.07;100218.00;5073525;28;20031;-22
2022/02/18 04:37:18;;;;;;;2.15;1.40;;;;;;;4.36;73.38;100214.50;5070617;28;20027;-22
2022/02/18 04:39:44;;;;;;;4.88;1.67;;;;;;;4.36;73.53;100209.28;5066257;28;20078;-22
2022/02/18 04:42:09;;;;;;;3.58;1.80;;;;;;;4.33;73.54;100191.84;5071428;28;20086;-21
2022/02/18 04:44:34;;;;;;;2.50;1.52;;;;;;;4.38;73.50;100211.91;5085183;28;20028;-21
2022/02/18 04:47:00;;;;;;;3.67;1.70;;;;;;;4.37;73.83;100213.66;5078090;28;20383;-22
2022/02/18 04:49:26;;;;;;;2.85;1.90;;;;;;;4.36;73.38;100204.06;5074351;28;20047;-22
2022/02/18 04:51:55;;;;;;;3.97;1.65;;;;;;;4.38;72.96;100220.63;5082069;28;20492;-21
2022/02/18 04:54:21;;;;;;;6.07;1.52;;;;;;;4.36;73.35;100214.50;5071305;28;20023;-22
2022/02/18 04:56:46;;;;;;;3.30;1.50;;;;;;;4.35;73.89;100217.97;5074391;28;20108;-21
2022/02/18 04:59:12;;;;;;;3.60;1.60;;;;;;;4.35;73.30;100211.03;5069208;28;20085;-21
2022/02/18 05:01:38;;;;;;;4.32;1.45;;;;;;;4.33;73.51;100204.03;5069235;28;20056;-21
2022/02/18 05:04:03;;;;;;;4.70;1.90;;;;;;;4.34;73.52;100208.41;5070917;28;20480;-21
2022/02/18 05:06:29;;;;;;;3.22;1.40;;;;;;;4.33;73.69;100201.41;5074487;28;20054;-22
2022/02/18 05:08:54;;;;;;;4.85;1.55;;;;;;;4.33;73.15;100201.41;5070747;28;20032;-21
2022/02/18 05:11:20;;;;;;;5.30;1.50;;;;;;;4.34;73.13;100213.63;5073897;28;20043;-21
2022/02/18 05:13:45;;;;;;;2.90;1.85;;;;;;;4.34;73.73;100197.97;5070293;28;20024;-22
2022/02/18 05:16:10;;;;;;;2.05;1.70;;;;;;;4.31;73.13;100197.94;5072565;28;20025;-21
2022/02/18 05:18:37;;;;;;;1.80;1.58;;;;;;;4.32;73.07;100204.91;5069698;28;20043;-22
2022/02/18 05:21:03;;;;;;;3.80;1.80;;;;;;;4.29;73.18;100208.34;5067988;28;20020;-21
2022/02/18 05:23:28;;;;;;;1.77;1.48;;;;;;;4.31;73.47;100203.16;5071159;28;20074;-22
2022/02/18 05:25:53;;;;;;;6.43;1.50;;;;;;;4.30;73.17;100201.41;5070301;28;20047;-22
2022/02/18 05:28:19;;;;;;;4.38;1.85;;;;;;;4.28;73.52;100196.19;5069913;28;20538;-21
2022/02/18 05:30:45;;;;;;;2.13;1.63;;;;;;;4.29;73.45;100197.91;5070542;28;20017;-22
2022/02/18 05:33:12;;;;;;;2.65;1.50;;;;;;;4.30;73.29;100196.19;5074397;28;20024;-22
2022/02/18 05:35:39;;;;;;;3.25;1.60;;;;;;;4.28;73.32;100192.69;5084505;28;20051;-22
2022/02/18 05:38:04;;;;;;;4.57;2.00;;;;;;;4.29;73.86;100189.19;5086586;28;20027;-21
2022/02/18 05:40:30;;;;;;;2.08;1.80;;;;;;;4.28;73.34;100187.44;5083220;28;20024;-21
2022/02/18 05:42:55;;;;;;;6.15;1.55;;;;;;;4.27;73.48;100181.34;5074679;28;20022;-21
2022/02/18 05:45:20;;;;;;;2.00;1.40;;;;;;;4.26;72.97;100191.81;5069147;28;20437;-22
2022/02/18 05:47:46;;;;;;;1.77;1.38;;;;;;;4.27;73.17;100190.94;5070712;28;20027;-22
2022/02/18 05:50:12;;;;;;;3.00;1.85;;;;;;;4.26;73.55;100186.59;5072868;28;20441;-22
2022/02/18 05:52:38;;;;;;;4.43;1.67;;;;;;;4.24;73.16;100178.72;5069989;28;20028;-22
2022/02/18 05:55:05;;;;;;;3.45;1.40;;;;;;;4.23;73.68;100175.22;5066814;28;20029;-21
2022/02/18 05:57:31;;;;;;;2.55;1.25;;;;;;;4.23;73.00;100170.00;5068089;28;20618;-21
2022/02/18 05:59:56;;;;;;;4.18;1.85;;;;;;;4.22;73.27;100162.16;5074638;28;20093;-22
2022/02/18 06:02:22;;;;;;;3.20;1.27;;;;;;;4.22;73.13;100162.16;5069238;28;20043;-21
2022/02/18 06:04:47;;;;;;;3.22;1.98;;;;;;;4.21;73.54;100161.28;5069540;28;20024;-21
2022/02/18 06:07:15;;;;;;;4.75;1.83;;;;;;;4.22;73.20;100149.13;5068188;28;20032;-21
2022/02/18 06:09:40;;;;;;;3.40;1.40;;;;;;;4.19;73.20;100146.47;5069612;28;20032;-21
2022/02/18 06:12:06;;;;;;;2.47;1.30;;;;;;;4.20;73.58;100143.03;5067959;28;20024;-22
2022/02/18 06:14:31;;;;;;;4.18;1.60;;;;;;;4.20;73.36;100143.88;5067896;28;20482;-21
2022/02/18 06:16:56;;;;;;;2.22;1.90;;;;;;;4.17;73.54;100143.00;5071846;28;20032;-21
2022/02/18 06:19:22;;;;;;;3.85;1.65;;;;;;;4.17;73.46;100133.41;5069587;28;20024;-21
2022/02/18 06:21:47;;;;;;;3.13;1.75;;;;;;;4.17;73.87;100146.44;5073252;28;20493;-21
2022/02/18 06:24:12;;;;;;;3.40;1.65;;;;;;;4.17;73.83;100138.63;5072536;28;20023;-22
2022/02/18 06:26:38;;;;;;;4.07;1.40;;;;;;;4.16;73.35;100139.50;5072973;28;20487;-21
2022/02/18 06:29:03;;;;;;;3.47;1.60;;;;;;;4.16;73.96;100136.88;5069127;28;20054;-21
2022/02/18 06:31:29;;;;;;;4.72;2.05;;;;;;;4.14;73.24;100136.00;5075663;28;20024;-22
2022/02/18 06:33:54;;;;;;;1.75;1.48;;;;;;;4.13;73.79;100136.84;5079439;28;20024;-22
2022/02/18 06:36:20;;;;;;;3.20;1.88;;;;;;;4.13;73.79;100139.47;5085417;28;20031;-22
2022/02/18 06:38:45;;;;;;;3.53;1.60;;;;;;;4.10;73.71;100140.31;5067964;28;20035;-21
2022/02/18 06:41:11;;;;;;;3.10;1.75;;;;;;;4.09;73.92;100135.06;5081680;28;20466;-21
2022/02/18 06:43:37;;;;;;;8.90;2.60;;;;;;;4.10;73.99;100131.59;5071247;28;20430;-22
2022/02/18 06:46:03;;;;;;;3.67;1.80;;;;;;;4.10;73.74;100137.72;5077024;28;20352;-22
2022/02/18 06:48:28;;;;;;;4.80;2.00;;;;;;;4.08;74.13;100128.13;5070307;28;20036;-21
2022/02/18 06:50:54;;;;;;;4.00;1.83;;;;;;;4.09;74.15;100130.75;5070217;28;20542;-21
2022/02/18 06:53:19;;;;;;;2.00;1.70;;;;;;;4.10;74.19;100122.03;5077289;28;20056;-22
2022/02/18 06:55:46;;;;;;;8.60;2.35;;;;;;;4.08;73.94;100107.25;5068428;28;20489;-21
2022/02/18 06:58:11;;;;;;;5.07;2.40;;;;;;;4.12;74.52;100122.06;5072938;28;20025;-21
2022/02/18 07:00:37;;;;;;;2.85;2.00;;;;;;;4.12;74.24;100116.84;5073466;28;20112;-22
2022/02/18 07:03:03;;;;;;;6.60;2.22;;;;;;;4.13;73.87;100115.97;5069631;28;20063;-22
2022/02/18 07:05:29;;;;;;;6.53;2.35;;;;;;;4.10;74.51;100098.56;5069958;28;20110;-22
2022/02/18 07:07:54;;;;;;;4.97;2.45;;;;;;;4.14;74.06;100099.47;5074096;28;20013;-22
2022/02/18 07:10:20;;;;;;;4.88;2.25;;;;;;;4.12;74.13;100093.34;5080026;28;20030;-22
2022/02/18 07:12:45;;;;;;;5.05;2.30;;;;;;;4.15;74.70;100097.72;5074499;28;20024;-22
2022/02/18 07:15:11;;;;;;;3.83;2.13;;;;;;;4.15;74.67;100093.38;5073947;28;20382;-22
2022/02/18 07:17:37;;;;;;;8.35;3.15;;;;;;;4.17;74.30;100081.19;5075207;28;20012;-22
2022/02/18 07:20:04;;;;;;;6.28;2.10;;;;;;;4.18;74.92;100085.59;5078756;28;20017;-22
2022/02/18 07:22:29;;;;;;;8.45;1.90;;;;;;;4.17;74.81;100073.38;5071699;28;20028;-22
2022/02/18 07:24:55;;;;;;;4.75;3.20;;;;;;;4.21;74.28;100074.28;5071932;28;20402;-21
2022/02/18 07:27:21;;;;;;;4.18;2.10;;;;;;;4.23;74.41;100083.88;5078388;28;20043;-22
2022/02/18 07:29:46;;;;;;;6.90;2.10;;;;;;;4.24;74.84;100093.44;5077094;28;20024;-22
2022/02/18 07:32:13;;;;;;;7.10;2.65;;;;;;;4.27;74.71;100096.94;5074876;28;20025;-22
2022/02/18 07:34:38;;;;;;;6.28;2.42;;;;;;;4.27;75.02;100095.19;5073135;28;20028;-22
2022/02/18 07:37:04;;;;;;;5.78;2.70;;;;;;;4.29;75.04;100088.25;5072826;28;20039;-22
2022/02/18 07:39:29;;;;;;;6.22;2.85;;;;;;;4.32;75.27;100080.47;5072676;28;20498;-21
2022/02/18 07:41:55;;;;;;;6.22;2.60;;;;;;;4.33;75.06;100095.25;5073493;28;20025;-21
2022/02/18 07:44:21;;;;;;;8.25;3.92;;;;;;;4.34;75.02;100089.16;5072257;28;20046;-21
2022/02/18 07:46:48;;;;;;;4.57;2.25;;;;;;;4.37;75.08;100093.56;5071070;28;20037;-21
2022/02/18 07:49:14;;;;;;;5.32;2.80;;;;;;;4.36;75.16;100086.56;5073999;28;20096;-21
2022/02/18 07:51:40;;;;;;;4.55;2.80;;;;;;;4.40;74.76;100080.50;5071277;28;20588;-22
2022/02/18 07:54:06;;;;;;;4.03;2.10;;;;;;;4.42;74.66;100080.50;5072909;28;20024;-21
2022/02/18 07:56:32;;;;;;;8.65;3.05;;;;;;;4.43;74.91;100062.25;5073139;28;20020;-21
2022/02/18 07:58:57;;;;;;;4.82;2.47;;;;;;;4.44;74.74;100057.91;5073959;28;20028;-21
2022/02/18 08:01:22;;;;;;;7.10;2.88;;;;;;;4.45;74.39;100055.31;5053701;28;20020;-22
2022/02/18 08:03:49;;;;;;;7.15;2.58;;;;;;;4.45;74.75;100046.59;5079474;28;20075;-21
2022/02/18 08:06:15;;;;;;;4.07;2.47;;;;;;;4.49;74.59;100037.91;5068443;28;20154;-22
2022/02/18 08:08:42;;;;;;;6.53;2.47;;;;;;;4.52;74.30;100027.47;5072457;28;20119;-22
2022/02/18 08:11:18;;;;;;;4.90;2.40;;;;;;;4.53;74.73;100018.75;5069301;28;20024;-21
2022/02/18 08:13:43;;;;;;;6.65;2.92;;;;;;;4.54;74.68;100015.31;5064058;28;20197;-21
2022/02/18 08:16:08;;;;;;;5.90;2.80;;;;;;;4.53;74.67;100008.31;5071678;28;20138;-21
2022/02/18 08:18:34;;;;;;;5.07;2.47;;;;;;;4.58;74.87;100013.56;5074567;28;20150;-22
2022/02/18 08:21:00;;;;;;;6.53;3.55;;;;;;;4.56;74.51;100004.84;5069519;28;20027;-21
2022/02/18 08:23:25;;;;;;;9.40;3.85;;;;;;;4.61;74.41;99990.09;5073102;28;20032;-22
2022/02/18 08:25:51;;;;;;;7.32;3.25;;;;;;;4.62;74.60;99979.66;5076033;28;20029;-21
2022/02/18 08:28:17;;;;;;;5.57;3.20;;;;;;;4.64;74.56;99971.81;5072571;28;20069;-21
2022/02/18 08:30:44;;;;;;;4.03;2.20;;;;;;;4.64;74.84;99974.44;5072039;28;20107;-22
2022/02/18 08:33:10;;;;;;;5.82;2.80;;;;;;;4.67;74.43;99966.59;5070768;28;20020;-21
2022/02/18 08:35:35;;;;;;;7.60;2.55;;;;;;;4.70;75.32;99958.75;5076560;28;20108;-21
2022/02/18 08:38:01;;;;;;;5.43;2.70;;;;;;;4.70;75.63;99955.28;5072117;28;20020;-21
2022/02/18 08:40:27;;;;;;;7.50;3.20;;;;;;;4.74;75.36;99954.44;5071726;28;20546;-21
2022/02/18 08:42:52;;;;;;;7.13;3.17;;;;;;;4.75;74.92;99938.78;5075108;28;20162;-21
2022/02/18 08:45:18;;;;;;;3.63;2.60;;;;;;;4.79;75.09;99917.84;5071367;28;20012;-21
2022/02/18 08:47:43;;;;;;;6.07;3.03;;;;;;;4.81;75.13;99916.13;5075921;28;20056;-21
2022/02/18 08:50:09;;;;;;;5.18;2.88;;;;;;;4.83;74.86;99927.44;5073777;28;20021;-21
2022/02/18 08:52:36;;;;;;;6.50;2.92;;;;;;;4.86;74.72;99914.38;5070711;28;20028;-21
2022/02/18 08:55:03;;;;;;;10.77;3.80;;;;;;;4.87;74.39;99905.69;5078258;28;20541;-21
2022/02/18 08:57:30;;;;;;;3.28;2.40;;;;;;;4.89;74.86;99893.50;5076288;28;20016;-21
2022/02/18 08:59:56;;;;;;;4.90;2.97;;;;;;;4.91;74.69;99891.78;5074860;28;20020;-21
2022/02/18 09:02:24;;;;;;;6.30;3.40;;;;;;;4.92;74.73;99890.00;5070554;28;20039;-21
2022/02/18 09:04:54;;;;;;;7.55;3.63;;;;;;;4.95;74.58;99883.06;5075851;28;20026;-21
2022/02/18 09:07:20;;;;;;;8.38;2.78;;;;;;;4.98;74.65;99893.53;5072884;28;20145;-21
2022/02/18 09:09:46;;;;;;;7.38;3.58;;;;;;;4.98;74.39;99884.81;5072515;28;20486;-21
2022/02/18 09:12:11;;;;;;;9.98;3.08;;;;;;;5.00;74.75;99878.69;5074269;28;20050;-21
2022/02/18 09:14:36;;;;;;;5.88;2.85;;;;;;;5.04;74.94;99887.44;5071095;28;20146;-21
2022/02/18 09:17:02;;;;;;;8.88;3.75;;;;;;;5.06;74.75;99874.34;5071926;28;20383;-21
2022/02/18 09:19:27;;;;;;;5.38;3.15;;;;;;;5.06;74.85;99871.72;5071216;28;20089;-21
2022/02/18 09:21:53;;;;;;;7.90;2.83;;;;;;;5.09;74.63;99871.72;5071301;28;20029;-21
2022/02/18 09:24:18;;;;;;;7.68;3.35;;;;;;;5.10;74.53;99866.50;5071410;28;20108;-21
2022/02/18 09:26:44;;;;;;;7.18;3.45;;;;;;;5.14;74.98;99856.94;5071500;28;20478;-21
2022/02/18 09:29:10;;;;;;;9.98;3.40;;;;;;;5.15;74.17;99853.44;5073518;28;20021;-22
2022/02/18 09:31:36;;;;;;;3.63;2.70;;;;;;;5.17;74.70;99841.22;5073567;28;20025;-21
2022/02/18 09:34:01;;;;;;;7.55;2.85;;;;;;;5.19;74.62;99838.63;5072005;28;20039;-21
2022/02/18 09:36:28;;;;;;;7.97;3.17;;;;;;;5.21;74.69;99839.50;5077170;28;20424;-21
2022/02/18 09:38:53;;;;;;;6.57;3.05;;;;;;;5.23;75.36;99829.91;5069688;28;20020;-21
2022/02/18 09:41:18;;;;;;;10.90;2.92;;;;;;;5.25;75.55;99820.31;5070742;28;20035;-21
2022/02/18 09:43:44;;;;;;;8.07;3.72;;;;;;;5.26;74.77;99804.63;5081110;28;20467;-21
2022/02/18 09:46:10;;;;;;;9.40;3.70;;;;;;;5.28;74.98;99794.19;5083218;28;20474;-21
2022/02/18 09:48:36;;;;;;;7.75;3.03;;;;;;;5.30;75.05;99784.56;5076990;28;20036;-21
2022/02/18 09:51:02;;;;;;;6.68;3.58;;;;;;;5.34;74.84;99777.59;5084381;28;20115;-21
2022/02/18 09:53:27;;;;;;;4.97;2.97;;;;;;;5.35;75.31;99766.28;5073416;28;20121;-21
2022/02/18 09:55:54;;;;;;;7.55;2.85;;;;;;;5.37;75.49;99756.69;5072119;28;20025;-21
2022/02/18 09:58:22;;;;;;;4.95;2.70;;;;;;;5.38;75.07;99748.81;5070820;28;20363;-21
2022/02/18 10:00:48;;;;;;;7.45;3.00;;;;;;;5.39;75.23;99758.41;5073902;28;20020;-21
2022/02/18 10:03:14;;;;;;;10.52;3.50;;;;;;;5.42;75.42;99752.31;5071401;28;20055;-21
2022/02/18 10:05:39;;;;;;;11.93;3.85;;;;;;;5.44;75.18;99747.91;5070037;28;20052;-21
2022/02/18 10:08:17;;;;;;;9.93;3.30;;;;;;;5.47;74.79;99747.91;5074268;28;20028;-21
2022/02/18 10:10:57;;;;;;;7.43;3.03;;;;;;;5.48;75.07;99740.97;5072671;28;20056;-21
2022/02/18 10:13:38;;;;;;;4.28;2.22;;;;;;;5.49;75.15;99730.50;5074695;28;20025;-21
2022/02/18 10:16:05;;;;;;;5.35;2.70;;;;;;;5.51;75.46;99715.66;5070718;28;20026;-21
2022/02/18 10:18:45;;;;;;;5.20;2.78;;;;;;;5.55;74.49;99702.56;5070769;28;20035;-21
2022/02/18 10:21:21;;;;;;;9.57;2.42;;;;;;;5.55;75.09;99692.09;5069217;28;20028;-21
2022/02/18 10:23:46;;;;;;;6.50;2.80;;;;;;;5.56;75.01;99683.38;5071615;28;20031;-21
2022/02/18 10:26:13;;;;;;;7.55;3.42;;;;;;;5.58;74.92;99673.78;5073568;28;20017;-21
2022/02/18 10:28:40;;;;;;;4.95;3.53;;;;;;;5.60;75.06;99665.03;5077889;28;20690;-21
2022/02/18 10:31:07;;;;;;;8.10;3.20;;;;;;;5.62;75.62;99655.44;5075947;28;20532;-21
2022/02/18 10:33:37;;;;;;;5.97;2.85;;;;;;;5.64;75.20;99653.69;5076636;28;20018;-21
2022/02/18 10:36:05;;;;;;;7.65;2.67;;;;;;;5.65;75.61;99638.88;5079081;28;20025;-21
2022/02/18 10:38:36;;;;;;;7.38;2.92;;;;;;;5.67;75.83;99644.94;5073041;28;20406;-21
2022/02/18 10:41:15;;;;;;;10.27;3.73;;;;;;;5.70;75.50;99641.47;5073525;28;20509;-21
2022/02/18 10:43:45;;;;;;;8.50;3.33;;;;;;;5.70;75.54;99626.63;5084159;28;20059;-21
2022/02/18 10:46:11;;;;;;;11.00;3.67;;;;;;;5.71;76.20;99617.91;5081516;28;20073;-21
2022/02/18 10:48:53;;;;;;;6.97;2.80;;;;;;;5.73;75.73;99613.53;5070737;28;20286;-21
2022/02/18 10:51:22;;;;;;;9.77;2.72;;;;;;;5.75;75.98;99609.16;5083926;28;20099;-21
2022/02/18 10:53:48;;;;;;;9.45;3.08;;;;;;;5.76;75.97;99595.19;5073955;28;20448;-21
2022/02/18 10:56:15;;;;;;;5.20;2.85;;;;;;;5.78;76.33;99590.81;5076882;28;20024;-21
2022/02/18 10:58:43;;;;;;;10.70;3.58;;;;;;;5.81;76.36;99586.44;5082236;28;20024;-21
2022/02/18 11:01:13;;;;;;;9.20;4.55;;;;;;;5.81;76.17;99570.75;5076751;28;20036;-21
2022/02/18 11:03:39;;;;;;;7.18;3.03;;;;;;;5.84;77.01;99560.25;5077841;28;20071;-21
2022/02/18 11:06:16;;;;;;;9.20;3.88;;;;;;;5.85;76.77;99556.75;5074665;28;20103;-21
2022/02/18 11:08:58;;;;;;;13.50;4.07;;;;;;;5.86;76.88;99542.78;5071167;28;20024;-21
2022/02/18 11:11:43;;;;;;;8.40;4.10;;;;;;;5.87;77.09;99541.91;5071727;28;20079;-21
2022/02/18 11:14:12;;;;;;;9.57;3.50;;;;;;;5.88;77.13;99531.44;5070259;28;20035;-21
2022/02/18 11:16:40;;;;;;;13.10;3.47;;;;;;;5.90;76.69;99528.78;5073644;28;20033;-21
2022/02/18 11:19:05;;;;;;;12.70;4.05;;;;;;;5.89;77.69;99519.19;5070891;28;20036;-21
2022/02/18 11:21:31;;;;;;;11.40;3.83;;;;;;;5.91;77.69;99504.38;5075786;28;20106;-21
2022/02/18 11:23:58;;;;;;;11.25;5.20;;;;;;;5.92;77.65;99495.63;5074484;28;20035;-21
2022/02/18 11:26:25;;;;;;;9.02;3.97;;;;;;;5.93;77.76;99481.66;5073315;28;20390;-21
2022/02/18 11:28:53;;;;;;;10.75;5.07;;;;;;;5.94;77.98;99467.72;5071462;28;20111;-21